createdAt,value
2017-10-11T00:00:57.904Z,15.25
2017-10-11T00:02:19.487Z,15.21
2017-10-11T00:02:58.755Z,15.19
2017-10-11T00:03:59.199Z,15.33
2017-10-11T00:04:59.633Z,15.25
2017-10-11T00:06:00.049Z,15.19
2017-10-11T00:07:00.479Z,15.24
2017-10-11T00:08:22.076Z,15.21
2017-10-11T00:09:01.353Z,15.27
2017-10-11T00:10:01.776Z,15.21
2017-10-11T00:11:02.208Z,15.22
2017-10-11T00:12:02.674Z,15.21
2017-10-11T00:13:03.072Z,15.24
2017-10-11T00:14:24.660Z,15.21
2017-10-11T00:15:03.935Z,15.10
2017-10-11T00:16:04.363Z,15.14
2017-10-11T00:17:04.804Z,15.25
2017-10-11T00:18:05.229Z,15.07
2017-10-11T00:19:05.661Z,15.18
2017-10-11T00:20:27.251Z,15.17
2017-10-11T00:21:06.536Z,15.11
2017-10-11T00:22:06.953Z,15.24
2017-10-11T00:23:07.383Z,15.19
2017-10-11T00:24:07.824Z,15.22
2017-10-11T00:25:08.248Z,15.19
2017-10-11T00:26:29.835Z,15.24
2017-10-11T00:27:09.106Z,15.24
2017-10-11T00:28:09.550Z,15.19
2017-10-11T00:29:09.980Z,15.09
2017-10-11T00:30:10.402Z,15.15
2017-10-11T00:31:10.833Z,15.22
2017-10-11T00:32:32.423Z,15.14
2017-10-11T00:33:11.700Z,15.21
2017-10-11T00:34:12.128Z,15.22
2017-10-11T00:35:12.571Z,15.24
2017-10-11T00:36:12.992Z,15.15
2017-10-11T00:37:13.419Z,15.22
2017-10-11T00:38:35.034Z,15.22
2017-10-11T00:39:14.282Z,15.18
2017-10-11T00:40:14.721Z,15.24
2017-10-11T00:41:15.147Z,15.21
2017-10-11T00:42:15.586Z,15.17
2017-10-11T00:43:16.016Z,15.24
2017-10-11T00:44:37.608Z,15.21
2017-10-11T00:45:16.868Z,15.28
2017-10-11T00:46:17.306Z,15.18
2017-10-11T00:47:17.736Z,15.29
2017-10-11T00:48:18.184Z,15.19
2017-10-11T00:49:18.614Z,15.28
2017-10-11T00:50:40.193Z,15.22
2017-10-11T00:51:19.477Z,15.25
2017-10-11T00:52:19.899Z,15.24
2017-10-11T00:53:20.323Z,15.24
2017-10-11T00:54:20.756Z,15.22
2017-10-11T00:55:21.197Z,15.28
2017-10-11T00:56:42.778Z,15.19
2017-10-11T00:57:22.052Z,15.33
2017-10-11T00:58:22.477Z,15.25
2017-10-11T00:59:22.918Z,15.27
2017-10-11T01:00:23.364Z,15.29
2017-10-11T01:01:23.773Z,15.25
2017-10-11T01:02:45.365Z,15.28
2017-10-11T01:03:24.649Z,15.29
2017-10-11T01:04:25.091Z,15.22
2017-10-11T01:05:25.501Z,15.18
2017-10-11T01:06:25.937Z,15.28
2017-10-11T01:07:26.375Z,15.31
2017-10-11T01:08:47.955Z,15.27
2017-10-11T01:09:27.241Z,15.24
2017-10-11T01:10:27.657Z,15.35
2017-10-11T01:11:28.092Z,15.24
2017-10-11T01:12:28.525Z,15.33
2017-10-11T01:13:28.955Z,15.28
2017-10-11T01:14:50.555Z,15.25
2017-10-11T01:15:29.819Z,15.21
2017-10-11T01:16:30.260Z,15.39
2017-10-11T01:17:30.680Z,15.36
2017-10-11T01:18:31.114Z,15.42
2017-10-11T01:19:31.544Z,15.42
2017-10-11T01:20:53.136Z,15.36
2017-10-11T01:21:32.400Z,15.25
2017-10-11T01:22:32.844Z,15.29
2017-10-11T01:23:33.272Z,15.40
2017-10-11T01:24:33.700Z,15.42
2017-10-11T01:25:34.128Z,15.36
2017-10-11T01:26:55.725Z,15.33
2017-10-11T01:27:34.998Z,15.42
2017-10-11T01:28:35.424Z,15.44
2017-10-11T01:29:35.858Z,15.37
2017-10-11T01:30:36.289Z,15.25
2017-10-11T01:31:36.738Z,15.36
2017-10-11T01:32:58.315Z,15.43
2017-10-11T01:33:37.583Z,15.42
2017-10-11T01:34:38.021Z,15.36
2017-10-11T01:35:38.448Z,15.36
2017-10-11T01:36:38.882Z,15.28
2017-10-11T01:37:39.309Z,15.33
2017-10-11T01:39:00.902Z,15.29
2017-10-11T01:39:40.175Z,15.19
2017-10-11T01:40:40.604Z,15.22
2017-10-11T01:41:41.045Z,15.21
2017-10-11T01:42:41.466Z,15.35
2017-10-11T01:43:41.899Z,15.35
2017-10-11T01:45:03.490Z,15.42
2017-10-11T01:45:42.761Z,15.28
2017-10-11T01:46:43.198Z,15.31
2017-10-11T01:47:43.630Z,15.22
2017-10-11T01:48:44.057Z,15.25
2017-10-11T01:49:44.493Z,15.25
2017-10-11T01:51:06.082Z,15.36
2017-10-11T01:51:45.350Z,15.29
2017-10-11T01:52:45.784Z,15.36
2017-10-11T01:53:46.211Z,15.25
2017-10-11T01:54:46.647Z,15.21
2017-10-11T01:55:47.078Z,15.18
2017-10-11T01:57:08.670Z,15.27
2017-10-11T01:57:47.942Z,15.24
2017-10-11T01:58:48.378Z,15.27
2017-10-11T01:59:48.802Z,15.29
2017-10-11T02:00:49.241Z,15.37
2017-10-11T02:01:49.663Z,15.22
2017-10-11T02:03:11.273Z,15.22
2017-10-11T02:03:50.528Z,15.28
2017-10-11T02:04:50.968Z,15.33
2017-10-11T02:05:51.396Z,15.29
2017-10-11T02:06:51.826Z,15.29
2017-10-11T02:07:52.253Z,15.35
2017-10-11T02:09:13.849Z,15.28
2017-10-11T02:09:53.122Z,15.29
2017-10-11T02:10:53.559Z,15.42
2017-10-11T02:11:53.984Z,15.33
2017-10-11T02:12:54.413Z,15.31
2017-10-11T02:13:54.845Z,15.25
2017-10-11T02:15:16.452Z,15.28
2017-10-11T02:15:55.729Z,15.33
2017-10-11T02:16:56.143Z,15.37
2017-10-11T02:17:56.576Z,15.24
2017-10-11T02:18:57.011Z,15.29
2017-10-11T02:19:57.434Z,15.25
2017-10-11T02:21:19.053Z,15.25
2017-10-11T02:21:58.294Z,15.25
2017-10-11T02:22:58.758Z,15.43
2017-10-11T02:23:59.164Z,15.28
2017-10-11T02:24:59.602Z,15.28
2017-10-11T02:26:00.024Z,15.35
2017-10-11T02:27:21.613Z,15.37
2017-10-11T02:28:00.884Z,15.37
2017-10-11T02:29:01.337Z,15.25
2017-10-11T02:30:01.749Z,15.31
2017-10-11T02:31:02.182Z,15.33
2017-10-11T02:32:02.616Z,15.18
2017-10-11T02:33:24.205Z,15.24
2017-10-11T02:34:03.484Z,15.18
2017-10-11T02:35:03.906Z,15.27
2017-10-11T02:36:04.397Z,15.35
2017-10-11T02:37:04.780Z,15.15
2017-10-11T02:38:05.204Z,15.22
2017-10-11T02:39:26.793Z,15.19
2017-10-11T02:40:06.063Z,15.25
2017-10-11T02:41:06.496Z,15.37
2017-10-11T02:42:06.934Z,15.28
2017-10-11T02:43:07.383Z,15.24
2017-10-11T02:44:07.803Z,15.14
2017-10-11T02:45:29.384Z,15.22
2017-10-11T02:46:08.659Z,15.19
2017-10-11T02:47:09.090Z,15.22
2017-10-11T02:48:09.521Z,15.31
2017-10-11T02:49:09.954Z,15.29
2017-10-11T02:50:10.383Z,15.29
2017-10-11T02:51:31.970Z,15.25
2017-10-11T02:52:11.246Z,15.33
2017-10-11T02:53:11.681Z,15.18
2017-10-11T02:54:12.109Z,15.31
2017-10-11T02:55:12.543Z,15.28
2017-10-11T02:56:12.972Z,15.21
2017-10-11T02:57:34.562Z,15.21
2017-10-11T02:58:13.833Z,15.21
2017-10-11T02:59:14.269Z,15.22
2017-10-11T03:00:14.701Z,15.24
2017-10-11T03:01:15.130Z,15.22
2017-10-11T03:02:15.566Z,15.14
2017-10-11T03:03:37.148Z,15.22
2017-10-11T03:04:16.423Z,15.22
2017-10-11T03:05:16.859Z,15.19
2017-10-11T03:06:17.289Z,15.11
2017-10-11T03:07:17.717Z,15.07
2017-10-11T03:08:18.145Z,15.09
2017-10-11T03:09:39.738Z,15.04
2017-10-11T03:10:19.017Z,15.03
2017-10-11T03:11:19.443Z,15.14
2017-10-11T03:12:19.872Z,15.02
2017-10-11T03:13:20.318Z,14.94
2017-10-11T03:14:20.737Z,14.96
2017-10-11T03:15:42.339Z,14.85
2017-10-11T03:16:21.624Z,14.86
2017-10-11T03:17:22.031Z,15.14
2017-10-11T03:18:22.464Z,15.27
2017-10-11T03:19:22.895Z,15.22
2017-10-11T03:20:23.341Z,15.29
2017-10-11T03:21:44.923Z,15.22
2017-10-11T03:22:24.192Z,15.21
2017-10-11T03:23:24.626Z,15.22
2017-10-11T03:24:25.052Z,15.17
2017-10-11T03:25:25.483Z,15.19
2017-10-11T03:26:25.920Z,15.17
2017-10-11T03:27:47.510Z,15.07
2017-10-11T03:28:26.780Z,15.03
2017-10-11T03:29:27.212Z,15.06
2017-10-11T03:30:27.640Z,14.96
2017-10-11T03:31:28.078Z,14.86
2017-10-11T03:32:28.507Z,14.99
2017-10-11T03:33:50.101Z,14.89
2017-10-11T03:34:29.367Z,14.97
2017-10-11T03:35:29.807Z,14.79
2017-10-11T03:36:30.232Z,14.94
2017-10-11T03:37:30.692Z,14.81
2017-10-11T03:38:31.092Z,14.89
2017-10-11T03:39:52.697Z,14.91
2017-10-11T03:40:31.960Z,14.85
2017-10-11T03:41:32.393Z,14.85
2017-10-11T03:42:32.823Z,14.92
2017-10-11T03:43:33.255Z,14.91
2017-10-11T03:44:33.686Z,14.82
2017-10-11T03:45:55.283Z,14.81
2017-10-11T03:46:34.554Z,14.79
2017-10-11T03:47:34.982Z,14.82
2017-10-11T03:48:35.414Z,14.89
2017-10-11T03:49:35.845Z,14.92
2017-10-11T03:50:36.434Z,14.91
2017-10-11T03:51:57.873Z,14.85
2017-10-11T03:52:37.142Z,14.84
2017-10-11T03:53:37.579Z,14.73
2017-10-11T03:54:38.014Z,14.84
2017-10-11T03:55:38.438Z,14.81
2017-10-11T03:56:38.880Z,14.82
2017-10-11T03:58:00.473Z,14.82
2017-10-11T03:58:39.733Z,14.86
2017-10-11T03:59:40.173Z,14.72
2017-10-11T04:00:40.605Z,14.69
2017-10-11T04:01:41.156Z,14.78
2017-10-11T04:02:41.469Z,14.81
2017-10-11T04:04:03.052Z,14.84
2017-10-11T04:04:42.327Z,14.85
2017-10-11T04:05:42.761Z,14.69
2017-10-11T04:06:43.188Z,14.66
2017-10-11T04:07:43.622Z,14.69
2017-10-11T04:08:44.056Z,14.68
2017-10-11T04:10:05.651Z,14.77
2017-10-11T04:10:44.916Z,14.81
2017-10-11T04:11:45.381Z,14.88
2017-10-11T04:12:45.782Z,14.96
2017-10-11T04:13:46.215Z,14.77
2017-10-11T04:14:46.644Z,14.73
2017-10-11T04:16:08.248Z,14.84
2017-10-11T04:16:47.512Z,14.96
2017-10-11T04:17:47.946Z,14.84
2017-10-11T04:18:48.379Z,14.92
2017-10-11T04:19:48.805Z,14.88
2017-10-11T04:20:49.237Z,14.73
2017-10-11T04:22:10.872Z,14.82
2017-10-11T04:22:50.113Z,14.79
2017-10-11T04:23:50.535Z,14.85
2017-10-11T04:24:50.986Z,14.92
2017-10-11T04:25:51.453Z,14.73
2017-10-11T04:26:51.836Z,14.82
2017-10-11T04:28:13.423Z,14.82
2017-10-11T04:28:52.693Z,14.68
2017-10-11T04:29:53.126Z,14.69
2017-10-11T04:30:53.566Z,14.69
2017-10-11T04:31:54.015Z,14.72
2017-10-11T04:32:54.429Z,14.63
2017-10-11T04:34:16.016Z,14.68
2017-10-11T04:34:55.287Z,14.66
2017-10-11T04:35:55.734Z,14.68
2017-10-11T04:36:56.148Z,14.68
2017-10-11T04:37:56.586Z,14.69
2017-10-11T04:38:57.015Z,14.63
2017-10-11T04:40:18.602Z,14.68
2017-10-11T04:40:57.879Z,14.77
2017-10-11T04:41:58.309Z,14.72
2017-10-11T04:42:58.741Z,14.73
2017-10-11T04:43:59.171Z,14.72
2017-10-11T04:44:59.612Z,14.68
2017-10-11T04:46:21.200Z,14.68
2017-10-11T04:47:00.473Z,14.69
2017-10-11T04:48:00.901Z,14.77
2017-10-11T04:49:01.327Z,14.73
2017-10-11T04:50:01.759Z,14.82
2017-10-11T04:51:02.206Z,14.73
2017-10-11T04:52:23.815Z,14.78
2017-10-11T04:53:03.063Z,14.82
2017-10-11T04:54:03.492Z,14.79
2017-10-11T04:55:03.925Z,14.78
2017-10-11T04:56:04.369Z,14.72
2017-10-11T04:57:04.786Z,14.72
2017-10-11T04:58:26.375Z,14.77
2017-10-11T04:59:05.651Z,14.69
2017-10-11T05:00:06.076Z,14.73
2017-10-11T05:01:06.521Z,14.92
2017-10-11T05:02:06.943Z,14.73
2017-10-11T05:03:07.384Z,14.81
2017-10-11T05:04:28.970Z,14.79
2017-10-11T05:05:08.238Z,14.78
2017-10-11T05:06:08.677Z,14.82
2017-10-11T05:07:09.103Z,14.81
2017-10-11T05:08:09.536Z,14.78
2017-10-11T05:09:09.978Z,14.81
2017-10-11T05:10:31.564Z,14.69
2017-10-11T05:11:10.835Z,14.69
2017-10-11T05:12:11.272Z,14.73
2017-10-11T05:13:11.701Z,14.73
2017-10-11T05:14:12.126Z,14.85
2017-10-11T05:15:12.560Z,14.60
2017-10-11T05:16:34.153Z,14.72
2017-10-11T05:17:13.423Z,14.65
2017-10-11T05:18:13.866Z,14.72
2017-10-11T05:19:14.296Z,14.78
2017-10-11T05:20:14.719Z,14.79
2017-10-11T05:21:15.151Z,14.81
2017-10-11T05:22:36.748Z,14.86
2017-10-11T05:23:16.019Z,14.86
2017-10-11T05:24:16.450Z,14.79
2017-10-11T05:25:16.884Z,14.82
2017-10-11T05:26:17.308Z,14.79
2017-10-11T05:27:17.743Z,14.70
2017-10-11T05:28:39.335Z,14.78
2017-10-11T05:29:18.605Z,14.69
2017-10-11T05:30:19.039Z,14.81
2017-10-11T05:31:19.469Z,14.84
2017-10-11T05:32:19.909Z,14.82
2017-10-11T05:33:20.344Z,14.79
2017-10-11T05:34:41.923Z,14.81
2017-10-11T05:35:21.211Z,14.92
2017-10-11T05:36:21.629Z,14.85
2017-10-11T05:37:22.077Z,14.85
2017-10-11T05:38:22.496Z,14.79
2017-10-11T05:39:22.956Z,14.79
2017-10-11T05:40:44.524Z,14.78
2017-10-11T05:41:23.788Z,14.91
2017-10-11T05:42:24.227Z,14.82
2017-10-11T05:43:24.653Z,14.84
2017-10-11T05:44:25.091Z,14.92
2017-10-11T05:45:25.518Z,14.72
2017-10-11T05:46:47.108Z,14.96
2017-10-11T05:47:26.380Z,14.96
2017-10-11T05:48:26.810Z,14.92
2017-10-11T05:49:27.240Z,14.99
2017-10-11T05:50:27.692Z,14.85
2017-10-11T05:51:28.111Z,14.79
2017-10-11T05:52:49.697Z,14.91
2017-10-11T05:53:28.972Z,14.91
2017-10-11T05:54:29.401Z,14.94
2017-10-11T05:55:29.835Z,15.00
2017-10-11T05:56:30.273Z,14.96
2017-10-11T05:57:30.702Z,14.92
2017-10-11T05:58:52.294Z,14.91
2017-10-11T05:59:31.583Z,15.03
2017-10-11T06:00:32.003Z,14.97
2017-10-11T06:01:32.427Z,15.00
2017-10-11T06:02:32.859Z,15.02
2017-10-11T06:03:33.286Z,15.00
2017-10-11T06:04:54.942Z,14.99
2017-10-11T06:05:34.159Z,14.99
2017-10-11T06:06:34.584Z,14.70
2017-10-11T06:07:35.035Z,14.89
2017-10-11T06:08:35.443Z,14.91
2017-10-11T06:09:35.896Z,14.94
2017-10-11T06:10:57.474Z,15.02
2017-10-11T06:11:36.766Z,15.04
2017-10-11T06:12:37.177Z,14.89
2017-10-11T06:13:37.613Z,14.99
2017-10-11T06:14:38.044Z,14.91
2017-10-11T06:15:38.471Z,15.03
2017-10-11T06:17:00.070Z,15.00
2017-10-11T06:17:39.338Z,14.99
2017-10-11T06:18:39.778Z,15.00
2017-10-11T06:19:40.200Z,15.06
2017-10-11T06:20:40.650Z,14.99
2017-10-11T06:21:41.098Z,15.17
2017-10-11T06:23:02.668Z,15.14
2017-10-11T06:23:41.927Z,15.09
2017-10-11T06:24:42.397Z,15.10
2017-10-11T06:25:42.796Z,15.22
2017-10-11T06:28:23.636Z,15.11
2017-10-11T06:29:24.052Z,15.14
2017-10-11T06:31:21.395Z,15.00
2017-10-11T06:32:21.810Z,14.99
2017-10-11T06:34:16.463Z,14.97
2017-10-11T06:35:16.862Z,15.02
2017-10-11T06:37:11.468Z,14.97
2017-10-11T06:38:12.038Z,15.07
2017-10-11T06:40:19.304Z,15.00
2017-10-11T06:41:19.725Z,14.96
2017-10-11T06:43:14.289Z,14.99
2017-10-11T06:44:14.727Z,14.92
2017-10-11T06:46:09.301Z,15.02
2017-10-11T06:47:09.720Z,14.99
2017-10-11T06:49:04.277Z,15.02
2017-10-11T06:50:04.714Z,15.07
2017-10-11T06:51:59.319Z,15.06
2017-10-11T06:52:59.748Z,15.09
2017-10-11T06:54:57.701Z,15.31
2017-10-11T06:55:58.142Z,15.28
2017-10-11T06:57:52.714Z,15.39
2017-10-11T06:58:53.133Z,15.27
2017-10-11T07:00:47.718Z,15.31
2017-10-11T07:01:48.134Z,15.22
2017-10-11T07:03:42.921Z,15.42
2017-10-11T07:04:43.355Z,15.49
2017-10-11T07:06:37.940Z,15.49
2017-10-11T07:07:38.364Z,15.59
2017-10-11T07:09:32.924Z,15.35
2017-10-11T07:10:33.358Z,15.61
2017-10-11T07:12:27.939Z,15.47
2017-10-11T07:13:28.362Z,15.49
2017-10-11T07:14:28.794Z,15.51
2017-10-11T07:15:29.232Z,15.54
2017-10-11T07:16:29.660Z,15.61
2017-10-11T07:17:30.096Z,15.67
2017-10-11T07:18:30.532Z,15.73
2017-10-11T07:19:30.962Z,15.82
2017-10-11T07:20:31.396Z,15.73
2017-10-11T07:21:31.828Z,15.68
2017-10-11T07:22:32.267Z,15.65
2017-10-11T07:23:32.695Z,15.51
2017-10-11T07:24:33.129Z,15.59
2017-10-11T07:25:33.562Z,15.70
2017-10-11T07:26:33.994Z,15.77
2017-10-11T07:27:34.448Z,15.65
2017-10-11T07:28:34.861Z,15.68
2017-10-11T07:29:35.295Z,15.59
2017-10-11T07:30:35.730Z,15.55
2017-10-11T07:31:36.171Z,15.67
2017-10-11T07:32:36.595Z,15.61
2017-10-11T07:33:37.058Z,15.65
2017-10-11T07:34:37.470Z,15.70
2017-10-11T07:35:37.894Z,15.47
2017-10-11T07:36:38.345Z,15.43
2017-10-11T07:37:38.764Z,15.57
2017-10-11T07:38:39.205Z,15.52
2017-10-11T07:39:39.641Z,15.59
2017-10-11T07:40:40.077Z,15.49
2017-10-11T07:41:40.522Z,15.58
2017-10-11T07:42:40.952Z,15.61
2017-10-11T07:43:41.372Z,15.73
2017-10-11T07:44:41.794Z,15.64
2017-10-11T07:45:42.226Z,15.67
2017-10-11T07:46:42.669Z,15.57
2017-10-11T07:47:43.103Z,15.52
2017-10-11T07:48:43.535Z,15.57
2017-10-11T07:49:43.960Z,15.65
2017-10-11T07:50:44.391Z,15.61
2017-10-11T07:51:44.828Z,15.73
2017-10-11T07:52:45.263Z,15.84
2017-10-11T07:53:45.703Z,15.90
2017-10-11T07:54:46.133Z,15.94
2017-10-11T07:55:46.563Z,15.88
2017-10-11T07:56:46.993Z,16.00
2017-10-11T07:57:47.433Z,15.72
2017-10-11T07:58:47.862Z,15.75
2017-10-11T07:59:48.294Z,15.92
2017-10-11T08:00:48.728Z,15.98
2017-10-11T08:01:49.174Z,16.05
2017-10-11T08:02:49.596Z,16.21
2017-10-11T08:03:50.045Z,16.15
2017-10-11T08:04:50.467Z,16.01
2017-10-11T08:05:50.908Z,15.88
2017-10-11T08:06:51.334Z,15.97
2017-10-11T08:07:51.776Z,16.15
2017-10-11T08:08:52.203Z,16.31
2017-10-11T08:09:52.644Z,16.38
2017-10-11T08:10:53.072Z,16.12
2017-10-11T08:11:53.508Z,16.20
2017-10-11T08:12:53.942Z,16.09
2017-10-11T08:13:54.393Z,15.94
2017-10-11T08:14:54.818Z,16.08
2017-10-11T08:15:55.248Z,16.12
2017-10-11T08:16:55.677Z,16.31
2017-10-11T08:17:56.113Z,16.21
2017-10-11T08:18:56.550Z,16.13
2017-10-11T08:19:56.983Z,16.12
2017-10-11T08:20:57.443Z,16.09
2017-10-11T08:21:57.853Z,16.04
2017-10-11T08:22:58.287Z,16.02
2017-10-11T08:23:58.723Z,15.83
2017-10-11T08:24:59.174Z,15.94
2017-10-11T08:25:59.590Z,16.08
2017-10-11T08:27:00.023Z,16.28
2017-10-11T08:28:00.463Z,16.32
2017-10-11T08:29:00.895Z,16.24
2017-10-11T08:30:01.327Z,16.23
2017-10-11T08:31:01.780Z,16.15
2017-10-11T08:32:02.218Z,16.17
2017-10-11T08:33:02.622Z,16.26
2017-10-11T08:34:03.093Z,16.28
2017-10-11T08:35:03.504Z,16.47
2017-10-11T08:36:58.091Z,16.39
2017-10-11T08:37:58.511Z,16.42
2017-10-11T08:39:53.126Z,16.71
2017-10-11T08:40:53.548Z,16.69
2017-10-11T08:42:48.121Z,16.86
2017-10-11T08:43:48.565Z,17.06
2017-10-11T08:45:43.161Z,17.34
2017-10-11T08:46:43.584Z,17.60
2017-10-11T08:48:38.149Z,18.31
2017-10-11T08:49:38.591Z,18.35
2017-10-11T08:51:37.845Z,18.44
2017-10-11T08:52:38.262Z,18.58
2017-10-11T08:54:38.206Z,19.24
2017-10-11T08:55:38.642Z,18.99
2017-10-11T08:57:34.649Z,18.88
2017-10-11T09:00:08.191Z,18.83
2017-10-11T09:01:08.649Z,18.65
2017-10-11T09:02:09.078Z,19.31
2017-10-11T09:03:09.517Z,19.19
2017-10-11T09:04:09.961Z,19.24
2017-10-11T09:05:10.399Z,18.56
2017-10-11T09:06:10.841Z,18.55
2017-10-11T09:07:11.289Z,18.92
2017-10-11T09:08:11.728Z,19.18
2017-10-11T09:09:12.168Z,19.30
2017-10-11T09:10:12.615Z,19.18
2017-10-11T09:11:13.054Z,19.26
2017-10-11T09:12:13.494Z,19.29
2017-10-11T09:13:13.935Z,19.30
2017-10-11T09:14:14.375Z,18.90
2017-10-11T09:15:14.819Z,19.02
2017-10-11T09:16:15.261Z,18.83
2017-10-11T09:17:15.705Z,18.78
2017-10-11T09:18:16.144Z,18.41
2017-10-11T09:19:16.579Z,18.52
2017-10-11T09:20:17.031Z,18.35
2017-10-11T09:21:17.457Z,18.35
2017-10-11T09:22:17.892Z,18.25
2017-10-11T09:23:18.335Z,18.08
2017-10-11T09:24:18.769Z,18.13
2017-10-11T09:25:19.212Z,18.03
2017-10-11T09:26:19.645Z,18.07
2017-10-11T09:27:20.087Z,18.00
2017-10-11T09:28:20.527Z,17.71
2017-10-11T09:29:20.965Z,17.60
2017-10-11T09:30:21.400Z,17.65
2017-10-11T09:31:21.847Z,17.86
2017-10-11T09:32:22.275Z,17.90
2017-10-11T09:33:22.711Z,17.86
2017-10-11T09:34:23.151Z,17.89
2017-10-11T09:35:23.583Z,18.08
2017-10-11T09:36:24.046Z,18.16
2017-10-11T09:37:24.489Z,18.28
2017-10-11T09:38:24.926Z,18.29
2017-10-11T09:39:25.323Z,18.16
2017-10-11T09:40:25.768Z,18.05
2017-10-11T09:41:26.215Z,18.23
2017-10-11T09:42:26.645Z,18.26
2017-10-11T09:43:27.085Z,18.20
2017-10-11T09:44:27.541Z,18.28
2017-10-11T09:45:27.956Z,18.25
2017-10-11T09:46:28.380Z,18.05
2017-10-11T09:47:28.828Z,17.83
2017-10-11T09:48:29.271Z,17.78
2017-10-11T09:49:29.704Z,17.86
2017-10-11T09:50:30.139Z,17.79
2017-10-11T09:51:30.592Z,17.82
2017-10-11T09:52:31.018Z,17.97
2017-10-11T09:53:31.450Z,18.01
2017-10-11T09:54:31.897Z,18.04
2017-10-11T09:55:32.322Z,18.23
2017-10-11T09:56:32.763Z,17.80
2017-10-11T09:57:33.198Z,17.64
2017-10-11T09:58:33.636Z,17.48
2017-10-11T10:02:42.757Z,17.74
2017-10-11T10:06:50.734Z,18.00
2017-10-11T10:07:51.155Z,18.10
2017-10-11T10:09:45.756Z,18.25
2017-10-11T10:10:46.178Z,18.19
2017-10-11T10:12:40.760Z,18.03
2017-10-11T10:13:41.195Z,18.07
2017-10-11T10:15:35.771Z,17.92
2017-10-11T10:16:36.195Z,18.03
2017-10-11T10:17:36.630Z,18.10
2017-10-11T10:18:37.072Z,17.97
2017-10-11T10:19:37.503Z,17.82
2017-10-11T10:20:37.941Z,17.83
2017-10-11T10:21:38.378Z,17.80
2017-10-11T10:22:38.816Z,17.87
2017-10-11T10:23:39.254Z,17.59
2017-10-11T10:24:39.685Z,17.59
2017-10-11T10:25:40.124Z,17.64
2017-10-11T10:26:40.558Z,17.59
2017-10-11T10:27:40.994Z,17.44
2017-10-11T10:28:41.429Z,17.31
2017-10-11T10:29:41.867Z,17.19
2017-10-11T10:30:42.305Z,17.23
2017-10-11T10:31:42.737Z,17.39
2017-10-11T10:32:43.175Z,17.36
2017-10-11T10:33:43.609Z,17.29
2017-10-11T10:34:44.043Z,17.23
2017-10-11T10:35:44.482Z,17.27
2017-10-11T10:36:44.916Z,17.34
2017-10-11T10:37:45.352Z,17.26
2017-10-11T10:38:45.785Z,17.26
2017-10-11T10:39:46.219Z,17.27
2017-10-11T10:40:46.659Z,17.05
2017-10-11T10:41:47.089Z,17.02
2017-10-11T10:42:47.527Z,17.16
2017-10-11T10:43:47.960Z,17.16
2017-10-11T10:44:48.393Z,17.26
2017-10-11T10:45:48.830Z,17.24
2017-10-11T10:46:49.263Z,17.08
2017-10-11T10:47:49.709Z,16.90
2017-10-11T10:48:50.134Z,16.86
2017-10-11T10:49:50.571Z,17.05
2017-10-11T10:50:51.004Z,17.16
2017-10-11T10:51:51.440Z,17.15
2017-10-11T10:52:51.879Z,17.16
2017-10-11T10:53:52.311Z,17.05
2017-10-11T10:54:52.743Z,17.12
2017-10-11T10:55:53.176Z,16.94
2017-10-11T10:56:53.614Z,17.05
2017-10-11T10:57:54.047Z,17.12
2017-10-11T10:58:54.496Z,17.04
2017-10-11T10:59:54.918Z,16.76
2017-10-11T11:00:55.354Z,16.97
2017-10-11T11:01:55.789Z,16.76
2017-10-11T11:02:56.224Z,16.72
2017-10-11T11:03:56.658Z,16.65
2017-10-11T11:04:57.096Z,16.84
2017-10-11T11:05:57.530Z,16.60
2017-10-11T11:06:57.968Z,16.66
2017-10-11T11:07:58.400Z,16.26
2017-10-11T11:08:58.845Z,16.46
2017-10-11T11:09:59.278Z,16.49
2017-10-11T11:10:59.712Z,16.12
2017-10-11T11:12:00.144Z,16.01
2017-10-11T11:13:00.576Z,16.15
2017-10-11T11:14:01.009Z,16.08
2017-10-11T11:15:01.444Z,15.73
2017-10-11T11:16:01.879Z,15.73
2017-10-11T11:17:02.316Z,15.67
2017-10-11T11:18:02.751Z,15.76
2017-10-11T11:19:03.183Z,15.51
2017-10-11T11:20:03.624Z,15.59
2017-10-11T11:21:04.050Z,15.55
2017-10-11T11:22:04.485Z,15.52
2017-10-11T11:23:04.918Z,15.73
2017-10-11T11:24:05.352Z,15.61
2017-10-11T11:25:05.792Z,15.57
2017-10-11T11:26:06.227Z,15.44
2017-10-11T11:27:06.655Z,15.43
2017-10-11T11:28:07.093Z,15.44
2017-10-11T11:29:07.524Z,15.36
2017-10-11T11:30:07.958Z,15.31
2017-10-11T11:31:08.390Z,15.36
2017-10-11T11:32:08.828Z,15.47
2017-10-11T11:33:09.259Z,15.55
2017-10-11T11:34:09.698Z,15.64
2017-10-11T11:35:10.130Z,15.73
2017-10-11T11:36:10.562Z,15.51
2017-10-11T11:37:10.994Z,15.57
2017-10-11T11:38:11.425Z,15.64
2017-10-11T11:39:11.861Z,15.64
2017-10-11T11:40:12.292Z,15.39
2017-10-11T11:41:12.726Z,15.47
2017-10-11T11:42:13.160Z,15.54
2017-10-11T11:43:13.596Z,15.72
2017-10-11T11:44:14.031Z,15.73
2017-10-11T11:45:14.474Z,15.75
2017-10-11T11:46:14.897Z,15.67
2017-10-11T11:47:15.327Z,15.44
2017-10-11T11:48:15.763Z,15.55
2017-10-11T11:49:16.256Z,15.64
2017-10-11T11:50:16.635Z,15.55
2017-10-11T11:51:17.067Z,15.57
2017-10-11T11:52:17.494Z,15.51
2017-10-11T11:53:17.932Z,15.55
2017-10-11T11:54:18.365Z,15.67
2017-10-11T11:55:18.802Z,15.61
2017-10-11T11:56:19.229Z,15.77
2017-10-11T11:57:19.667Z,15.73
2017-10-11T11:58:20.098Z,15.82
2017-10-11T11:59:20.532Z,15.90
2017-10-11T12:00:20.964Z,15.75
2017-10-11T12:01:21.402Z,15.76
2017-10-11T12:02:21.835Z,15.80
2017-10-11T12:03:22.276Z,15.80
2017-10-11T12:04:22.716Z,15.91
2017-10-11T12:05:23.142Z,16.05
2017-10-11T12:06:23.595Z,16.15
2017-10-11T12:07:24.005Z,16.28
2017-10-11T12:08:24.445Z,16.46
2017-10-11T12:09:24.874Z,16.43
2017-10-11T12:10:25.310Z,16.54
2017-10-11T12:11:25.745Z,16.64
2017-10-11T12:12:26.175Z,16.64
2017-10-11T12:13:26.614Z,16.58
2017-10-11T12:14:27.050Z,16.81
2017-10-11T12:15:27.485Z,17.05
2017-10-11T12:16:27.919Z,16.81
2017-10-11T12:17:28.358Z,16.78
2017-10-11T12:18:28.791Z,16.81
2017-10-11T12:19:29.231Z,16.83
2017-10-11T12:20:29.665Z,17.09
2017-10-11T12:21:30.103Z,17.05
2017-10-11T12:22:30.538Z,17.06
2017-10-11T12:23:30.973Z,16.89
2017-10-11T12:24:31.412Z,17.02
2017-10-11T12:25:31.846Z,17.11
2017-10-11T12:26:32.283Z,16.99
2017-10-11T12:27:32.721Z,16.84
2017-10-11T12:28:33.162Z,16.66
2017-10-11T12:29:33.592Z,16.83
2017-10-11T12:30:34.028Z,16.66
2017-10-11T12:31:34.468Z,16.43
2017-10-11T12:32:34.902Z,16.64
2017-10-11T12:33:35.335Z,16.47
2017-10-11T12:34:35.775Z,16.53
2017-10-11T12:35:36.212Z,16.49
2017-10-11T12:36:36.664Z,16.60
2017-10-11T12:37:37.084Z,16.76
2017-10-11T12:38:37.514Z,16.87
2017-10-11T12:39:37.953Z,16.94
2017-10-11T12:40:38.394Z,16.93
2017-10-11T12:41:38.827Z,16.99
2017-10-11T12:42:39.258Z,16.96
2017-10-11T12:43:39.694Z,17.05
2017-10-11T12:44:40.130Z,17.05
2017-10-11T12:45:40.564Z,17.15
2017-10-11T12:46:41.004Z,17.05
2017-10-11T12:47:41.438Z,17.08
2017-10-11T12:48:41.872Z,17.20
2017-10-11T12:49:42.307Z,17.39
2017-10-11T12:50:42.743Z,17.51
2017-10-11T12:51:43.187Z,17.54
2017-10-11T12:52:43.623Z,17.39
2017-10-11T12:53:44.051Z,17.36
2017-10-11T12:54:44.490Z,17.05
2017-10-11T12:55:44.923Z,17.02
2017-10-11T12:56:45.364Z,17.19
2017-10-11T12:57:45.795Z,17.26
2017-10-11T12:58:46.235Z,17.52
2017-10-11T12:59:46.671Z,17.60
2017-10-11T13:00:47.103Z,17.63
2017-10-11T13:01:47.543Z,17.59
2017-10-11T13:02:47.974Z,17.54
2017-10-11T13:03:48.411Z,17.63
2017-10-11T13:04:48.847Z,17.64
2017-10-11T13:05:49.292Z,17.64
2017-10-11T13:06:49.715Z,17.79
2017-10-11T13:07:50.157Z,17.79
2017-10-11T13:08:50.590Z,17.71
2017-10-11T13:09:51.027Z,17.64
2017-10-11T13:10:51.469Z,17.48
2017-10-11T13:11:51.904Z,17.67
2017-10-11T13:12:52.344Z,17.82
2017-10-11T13:13:52.773Z,17.82
2017-10-11T13:14:53.215Z,17.86
2017-10-11T13:15:53.649Z,18.03
2017-10-11T13:16:54.084Z,18.04
2017-10-11T13:17:54.519Z,18.03
2017-10-11T13:18:54.978Z,17.67
2017-10-11T13:19:55.392Z,17.89
2017-10-11T13:20:55.829Z,17.60
2017-10-11T13:21:56.265Z,17.89
2017-10-11T13:22:56.704Z,17.70
2017-10-11T13:23:57.139Z,17.76
2017-10-11T13:24:57.577Z,17.85
2017-10-11T13:25:58.013Z,18.01
2017-10-11T13:26:58.452Z,18.18
2017-10-11T13:27:58.887Z,18.05
2017-10-11T13:28:59.323Z,18.05
2017-10-11T13:29:59.761Z,18.03
2017-10-11T13:31:00.204Z,18.08
2017-10-11T13:32:00.694Z,18.20